createdAt,value
2018-06-03T00:00:50.279Z,46.77
2018-06-03T00:03:16.390Z,43.93
2018-06-03T00:05:42.488Z,42.13
2018-06-03T00:08:08.598Z,50.17
2018-06-03T00:10:34.723Z,44.77
2018-06-03T00:13:00.843Z,44.40
2018-06-03T00:15:26.987Z,44.07
2018-06-03T00:17:53.094Z,44.87
2018-06-03T00:20:31.660Z,44.00
2018-06-03T00:22:57.772Z,44.37
2018-06-03T00:25:23.956Z,43.93
2018-06-03T00:27:50.880Z,47.10
2018-06-03T00:30:17.057Z,45.30
2018-06-03T00:32:43.965Z,51.93
2018-06-03T00:35:10.181Z,48.90
2018-06-03T00:37:36.345Z,43.73
2018-06-03T00:40:03.293Z,46.17
2018-06-03T00:42:29.475Z,46.33
2018-06-03T00:44:55.658Z,51.03
2018-06-03T00:47:21.830Z,45.53
2018-06-03T00:49:48.044Z,45.17
2018-06-03T00:52:14.230Z,48.63
2018-06-03T00:54:41.159Z,46.70
2018-06-03T00:57:08.099Z,51.57
2018-06-03T01:00:11.223Z,51.13
2018-06-03T01:02:38.646Z,46.97
2018-06-03T01:05:06.099Z,48.50
2018-06-03T01:07:33.475Z,44.93
2018-06-03T01:10:00.871Z,45.83
2018-06-03T01:12:28.260Z,50.13
2018-06-03T01:14:55.659Z,41.57
2018-06-03T01:17:23.057Z,47.47
2018-06-03T01:19:50.433Z,51.60
2018-06-03T01:22:17.827Z,46.10
2018-06-03T01:24:45.209Z,49.73
2018-06-03T01:27:12.583Z,44.27
2018-06-03T01:29:39.985Z,44.67
2018-06-03T01:32:07.376Z,42.47
2018-06-03T01:34:34.814Z,43.30
2018-06-03T01:37:02.189Z,41.70
2018-06-03T01:39:29.603Z,41.30
2018-06-03T01:41:57.015Z,41.13
2018-06-03T01:44:24.407Z,41.80
2018-06-03T01:46:51.804Z,45.67
2018-06-03T01:49:19.216Z,44.47
2018-06-03T01:51:46.609Z,42.77
2018-06-03T01:54:14.015Z,39.90
2018-06-03T01:56:41.437Z,40.07
2018-06-03T01:59:08.825Z,40.10
2018-06-03T02:01:36.184Z,42.40
2018-06-03T02:04:03.572Z,40.30
2018-06-03T02:06:30.967Z,39.43
2018-06-03T02:08:58.348Z,41.70
2018-06-03T02:11:25.748Z,43.07
2018-06-03T02:13:53.156Z,43.07
2018-06-03T02:16:20.543Z,44.97
2018-06-03T02:18:47.943Z,44.97
2018-06-03T02:21:15.349Z,48.90
2018-06-03T02:23:42.732Z,46.47
2018-06-03T02:26:10.139Z,41.77
2018-06-03T02:28:37.520Z,42.57
2018-06-03T02:31:04.907Z,45.57
2018-06-03T02:33:32.313Z,42.00
2018-06-03T02:35:59.707Z,43.53
2018-06-03T02:38:27.096Z,43.53
2018-06-03T02:40:54.496Z,44.10
2018-06-03T02:43:21.868Z,41.13
2018-06-03T02:45:49.255Z,40.77
2018-06-03T02:48:16.644Z,43.27
2018-06-03T02:50:44.023Z,44.40
2018-06-03T02:53:11.445Z,37.53
2018-06-03T02:55:38.859Z,39.03
2018-06-03T02:58:06.276Z,41.40
2018-06-03T03:00:33.672Z,44.50
2018-06-03T03:03:01.065Z,49.27
2018-06-03T03:05:28.445Z,48.50
2018-06-03T03:07:55.827Z,44.20
2018-06-03T03:10:23.221Z,42.33
2018-06-03T03:12:50.604Z,42.97
2018-06-03T03:15:17.991Z,43.07
2018-06-03T03:17:45.384Z,42.63
2018-06-03T03:20:12.767Z,42.37
2018-06-03T03:22:40.162Z,46.17
2018-06-03T03:25:07.567Z,54.93
2018-06-03T03:27:34.960Z,54.63
2018-06-03T03:30:02.339Z,54.47
2018-06-03T03:32:29.739Z,51.80
2018-06-03T03:34:57.132Z,56.70
2018-06-03T03:37:24.507Z,53.93
2018-06-03T03:39:51.896Z,53.50
2018-06-03T03:42:19.275Z,54.23
2018-06-03T03:44:46.654Z,58.93
2018-06-03T03:47:14.067Z,55.10
2018-06-03T03:49:41.471Z,49.87
2018-06-03T03:52:08.842Z,63.57
2018-06-03T03:54:36.257Z,61.27
2018-06-03T03:57:03.651Z,55.03
2018-06-03T03:59:31.087Z,64.33
2018-06-03T04:01:58.482Z,59.80
2018-06-03T04:04:25.871Z,56.00
2018-06-03T04:06:53.264Z,58.37
2018-06-03T04:09:20.660Z,56.60
2018-06-03T04:11:48.032Z,53.33
2018-06-03T04:14:15.451Z,49.83
2018-06-03T04:16:42.863Z,49.20
2018-06-03T04:19:10.245Z,47.40
2018-06-03T04:21:37.635Z,51.80
2018-06-03T04:24:05.027Z,54.13
2018-06-03T04:26:32.409Z,55.03
2018-06-03T04:28:59.801Z,51.37
2018-06-03T04:31:27.199Z,50.47
2018-06-03T04:33:54.576Z,55.23
2018-06-03T04:36:21.943Z,47.27
2018-06-03T04:38:49.320Z,48.47
2018-06-03T04:41:16.762Z,48.77
2018-06-03T04:43:44.111Z,47.30
2018-06-03T04:46:11.501Z,48.23
2018-06-03T04:48:38.885Z,51.37
2018-06-03T04:51:06.291Z,46.47
2018-06-03T04:53:33.732Z,46.00
2018-06-03T04:56:01.125Z,45.93
2018-06-03T04:58:28.511Z,44.37
2018-06-03T05:00:55.961Z,45.00
2018-06-03T05:03:23.356Z,46.20
2018-06-03T05:05:50.748Z,47.03
2018-06-03T05:08:18.140Z,44.33
2018-06-03T05:10:45.531Z,43.77
2018-06-03T05:13:12.919Z,43.63
2018-06-03T05:15:40.314Z,46.00
2018-06-03T05:18:07.709Z,40.10
2018-06-03T05:20:35.115Z,38.67
2018-06-03T05:23:02.510Z,40.83
2018-06-03T05:28:04.133Z,37.83
2018-06-03T05:30:31.516Z,32.40
2018-06-03T05:32:58.896Z,34.17
2018-06-03T05:35:26.314Z,34.67
2018-06-03T05:37:53.712Z,38.47
2018-06-03T05:40:21.111Z,39.27
2018-06-03T05:42:48.499Z,34.93
2018-06-03T05:45:15.879Z,34.77
2018-06-03T05:47:43.267Z,33.80
2018-06-03T05:50:10.644Z,32.80
2018-06-03T05:52:38.004Z,28.90
2018-06-03T05:55:05.386Z,32.60
2018-06-03T05:57:32.788Z,32.43
2018-06-03T06:00:00.187Z,30.40
2018-06-03T06:02:27.584Z,29.10
2018-06-03T06:04:54.977Z,28.13
2018-06-03T06:07:22.382Z,25.10
2018-06-03T06:09:49.828Z,27.97
2018-06-03T06:12:17.315Z,27.50
2018-06-03T06:14:44.696Z,30.23
2018-06-03T06:17:12.079Z,30.47
2018-06-03T06:19:39.654Z,37.47
2018-06-03T06:22:07.056Z,37.67
2018-06-03T06:24:34.465Z,34.83
2018-06-03T06:27:01.850Z,34.50
2018-06-03T06:29:29.250Z,31.80
2018-06-03T06:31:56.621Z,32.67
2018-06-03T06:34:24.012Z,27.77
2018-06-03T06:36:51.400Z,28.73
2018-06-03T06:39:18.779Z,30.07
2018-06-03T06:41:46.167Z,32.57
2018-06-03T06:44:13.547Z,29.57
2018-06-03T06:46:40.944Z,31.27
2018-06-03T06:49:08.331Z,30.33
2018-06-03T06:51:35.707Z,31.00
2018-06-03T06:54:03.164Z,31.73
2018-06-03T06:56:30.571Z,31.40
2018-06-03T06:58:57.988Z,37.97
2018-06-03T07:01:25.384Z,32.23
2018-06-03T07:03:52.796Z,31.97
2018-06-03T07:06:20.179Z,32.63
2018-06-03T07:08:47.678Z,31.10
2018-06-03T07:11:15.060Z,29.07
2018-06-03T07:13:42.470Z,29.77
2018-06-03T07:16:09.853Z,27.53
2018-06-03T07:18:37.290Z,24.17
2018-06-03T07:21:04.724Z,22.60
2018-06-03T07:23:32.128Z,26.30
2018-06-03T07:25:59.579Z,23.13
2018-06-03T07:28:26.955Z,24.47
2018-06-03T07:30:54.359Z,27.80
2018-06-03T07:33:21.747Z,28.37
2018-06-03T07:35:49.143Z,31.63
2018-06-03T07:38:16.605Z,30.47
2018-06-03T07:40:44.037Z,29.13
2018-06-03T07:43:11.455Z,32.97
2018-06-03T07:45:38.853Z,32.73
2018-06-03T07:48:06.278Z,30.83
2018-06-03T07:50:33.661Z,28.97
2018-06-03T07:53:01.040Z,30.10
2018-06-03T07:55:28.433Z,31.80
2018-06-03T07:57:55.819Z,32.47
2018-06-03T08:00:23.188Z,31.27
2018-06-03T08:02:50.584Z,31.63
2018-06-03T08:05:17.971Z,30.23
2018-06-03T08:07:45.371Z,31.00
2018-06-03T08:10:12.820Z,32.23
2018-06-03T08:12:40.195Z,30.43
2018-06-03T08:15:07.581Z,30.23
2018-06-03T08:17:34.963Z,29.47
2018-06-03T08:20:02.367Z,30.77
2018-06-03T08:22:29.761Z,32.27
2018-06-03T08:24:57.174Z,32.50
2018-06-03T08:27:24.566Z,33.67
2018-06-03T08:29:51.989Z,33.03
2018-06-03T08:32:19.359Z,32.03
2018-06-03T08:34:46.742Z,31.87
2018-06-03T08:37:14.127Z,31.90
2018-06-03T08:39:41.508Z,31.40
2018-06-03T08:42:08.901Z,33.37
2018-06-03T08:44:36.304Z,26.97
2018-06-03T08:47:03.715Z,29.87
2018-06-03T08:49:31.158Z,31.07
2018-06-03T08:51:58.616Z,30.10
2018-06-03T08:54:26.387Z,34.40
2018-06-03T08:56:53.792Z,34.47
2018-06-03T08:59:21.168Z,34.00
2018-06-03T09:01:48.608Z,32.97
2018-06-03T09:04:16.025Z,31.67
2018-06-03T09:06:43.425Z,34.57
2018-06-03T09:09:10.850Z,32.70
2018-06-03T09:11:38.267Z,30.77
2018-06-03T09:14:05.621Z,33.20
2018-06-03T09:16:33.037Z,32.70
2018-06-03T09:19:00.722Z,33.53
2018-06-03T09:21:28.294Z,35.53
2018-06-03T09:23:55.689Z,33.97
2018-06-03T09:26:23.069Z,34.00
2018-06-03T09:28:50.465Z,33.77
2018-06-03T09:31:18.807Z,35.27
2018-06-03T09:33:46.275Z,32.37
2018-06-03T09:36:13.709Z,31.03
2018-06-03T09:38:41.644Z,34.97
2018-06-03T09:41:09.050Z,34.03
2018-06-03T09:43:36.462Z,34.07
2018-06-03T09:46:05.076Z,35.97
2018-06-03T09:48:32.481Z,29.73
2018-06-03T09:50:59.905Z,32.37
2018-06-03T09:53:27.296Z,34.83
2018-06-03T09:55:54.807Z,35.20
2018-06-03T09:58:22.211Z,32.00
2018-06-03T10:00:49.608Z,35.23
2018-06-03T10:03:17.009Z,35.78
2018-06-03T10:05:44.407Z,32.35
2018-06-03T10:08:11.804Z,35.28
2018-06-03T10:10:39.200Z,34.27
2018-06-03T10:13:06.602Z,30.43
2018-06-03T10:15:34.039Z,31.25
2018-06-03T10:18:01.421Z,31.33
2018-06-03T10:20:28.824Z,32.37
2018-06-03T10:22:56.229Z,31.43
2018-06-03T10:25:23.607Z,31.60
2018-06-03T10:27:51.024Z,31.52
2018-06-03T10:30:18.436Z,33.75
2018-06-03T10:32:45.805Z,32.78
2018-06-03T10:35:13.207Z,33.60
2018-06-03T10:37:40.593Z,34.98
2018-06-03T10:40:07.993Z,32.47
2018-06-03T10:42:35.387Z,29.18
2018-06-03T10:45:02.921Z,27.77
2018-06-03T10:47:30.353Z,32.28
2018-06-03T10:49:57.732Z,32.23
2018-06-03T10:52:25.156Z,31.07
2018-06-03T10:54:52.665Z,25.82
2018-06-03T10:57:20.049Z,27.82
2018-06-03T10:59:47.480Z,27.80
2018-06-03T11:02:14.874Z,27.77
2018-06-03T11:04:42.295Z,23.75
2018-06-03T11:07:09.708Z,24.98
2018-06-03T11:09:37.127Z,26.35
2018-06-03T11:12:04.539Z,27.10
2018-06-03T11:14:31.943Z,27.00
2018-06-03T11:16:59.336Z,25.15
2018-06-03T11:19:26.715Z,26.73
2018-06-03T11:21:54.112Z,26.33
2018-06-03T11:24:21.528Z,22.95
2018-06-03T11:26:48.956Z,26.20
2018-06-03T11:29:16.345Z,26.70
2018-06-03T11:31:43.744Z,26.95
2018-06-03T11:34:11.136Z,25.62
2018-06-03T11:36:38.504Z,22.45
2018-06-03T11:39:07.616Z,22.13
2018-06-03T11:41:35.011Z,22.05
2018-06-03T11:44:02.645Z,24.92
2018-06-03T11:46:30.056Z,23.35
2018-06-03T11:48:57.423Z,21.55
2018-06-03T11:51:24.820Z,24.27
2018-06-03T11:53:52.239Z,20.37
2018-06-03T11:56:19.605Z,18.50
2018-06-03T11:58:55.609Z,19.12
2018-06-03T12:01:23.745Z,18.57
2018-06-03T12:03:51.193Z,22.37
2018-06-03T12:06:18.614Z,24.30
2018-06-03T12:08:45.995Z,24.15
2018-06-03T12:11:13.395Z,23.92
2018-06-03T12:13:40.872Z,22.45
2018-06-03T12:16:08.261Z,20.27
2018-06-03T12:18:35.635Z,22.27
2018-06-03T12:21:03.060Z,25.12
2018-06-03T12:23:30.440Z,22.22
2018-06-03T12:25:57.867Z,22.82
2018-06-03T12:28:25.312Z,20.48
2018-06-03T12:30:52.696Z,18.98
2018-06-03T12:33:20.113Z,18.57
2018-06-03T12:35:47.508Z,17.30
2018-06-03T12:38:14.918Z,20.60
2018-06-03T12:40:42.320Z,21.57
2018-06-03T12:43:09.729Z,20.52
2018-06-03T12:45:37.140Z,20.25
2018-06-03T12:48:04.903Z,19.98
2018-06-03T12:50:32.319Z,19.65
2018-06-03T12:52:59.687Z,20.80
2018-06-03T12:55:27.170Z,21.60
2018-06-03T12:57:54.599Z,19.67
2018-06-03T13:00:21.967Z,22.67
2018-06-03T13:02:49.343Z,22.10
2018-06-03T13:05:16.785Z,19.27
2018-06-03T13:07:44.979Z,17.85
2018-06-03T13:10:12.353Z,19.67
2018-06-03T13:12:39.796Z,19.82
2018-06-03T13:15:07.173Z,20.75
2018-06-03T13:17:35.114Z,18.62
2018-06-03T13:20:02.570Z,20.23
2018-06-03T13:22:29.916Z,19.52
2018-06-03T13:24:57.333Z,20.45
2018-06-03T13:27:24.751Z,20.52
2018-06-03T13:29:52.120Z,19.30
2018-06-03T13:32:19.537Z,20.68
2018-06-03T13:34:46.921Z,20.20
2018-06-03T13:37:14.315Z,18.05
2018-06-03T13:39:41.692Z,14.90
2018-06-03T13:42:09.109Z,14.93
2018-06-03T13:44:36.500Z,15.45
2018-06-03T13:47:04.088Z,14.23
2018-06-03T13:49:31.478Z,18.45
2018-06-03T13:51:58.874Z,16.15
2018-06-03T13:54:27.280Z,17.55
2018-06-03T13:56:54.704Z,14.45
2018-06-03T13:59:22.087Z,12.18
2018-06-03T14:01:49.535Z,14.15
2018-06-03T14:04:16.915Z,16.82
2018-06-03T14:06:44.287Z,13.13
2018-06-03T14:09:11.667Z,12.05
2018-06-03T14:11:39.049Z,11.70
2018-06-03T14:14:06.415Z,14.07
2018-06-03T14:16:33.832Z,12.85
2018-06-03T14:19:01.216Z,11.45
2018-06-03T14:21:28.587Z,12.63
2018-06-03T14:23:55.959Z,12.45
2018-06-03T14:26:23.356Z,11.20
2018-06-03T14:28:50.739Z,11.78
2018-06-03T14:31:18.115Z,14.55
2018-06-03T14:33:45.512Z,11.50
2018-06-03T14:36:12.875Z,11.00
2018-06-03T14:38:40.220Z,12.75
2018-06-03T14:41:07.628Z,12.33
2018-06-03T14:43:35.023Z,11.93
2018-06-03T14:46:02.389Z,11.25
2018-06-03T14:48:29.754Z,12.55
2018-06-03T14:50:57.112Z,12.53
2018-06-03T14:53:24.476Z,14.10
2018-06-03T14:55:51.893Z,12.68
2018-06-03T14:58:19.294Z,13.22
2018-06-03T15:00:46.607Z,12.82
2018-06-03T15:03:14.171Z,11.35
2018-06-03T15:05:41.589Z,12.73
2018-06-03T15:08:09.070Z,11.25
2018-06-03T15:10:36.640Z,12.53
2018-06-03T15:13:03.987Z,11.70
2018-06-03T15:15:31.351Z,12.03
2018-06-03T15:17:58.908Z,11.30
2018-06-03T15:20:26.327Z,10.63
2018-06-03T15:22:53.699Z,11.45
2018-06-03T15:25:21.064Z,10.20
2018-06-03T15:27:48.419Z,10.65
2018-06-03T15:30:15.767Z,10.28
2018-06-03T15:35:17.347Z,10.23
2018-06-03T15:37:44.732Z,10.65
2018-06-03T15:40:12.098Z,10.98
2018-06-03T15:42:39.468Z,10.85
2018-06-03T15:45:06.844Z,10.35
2018-06-03T15:47:34.232Z,10.10
2018-06-03T15:50:01.612Z,11.60
2018-06-03T15:52:28.985Z,9.25
2018-06-03T15:54:56.340Z,10.25
2018-06-03T15:57:23.716Z,10.55
2018-06-03T15:59:51.088Z,9.08
2018-06-03T16:02:18.479Z,9.23
2018-06-03T16:04:45.850Z,11.28
2018-06-03T16:07:15.396Z,10.98
2018-06-03T16:09:42.812Z,12.33
2018-06-03T16:12:10.184Z,13.55
2018-06-03T16:14:37.524Z,10.65
2018-06-03T16:17:04.892Z,13.93
2018-06-03T16:19:32.311Z,8.98
2018-06-03T16:21:59.724Z,8.40
2018-06-03T16:24:27.132Z,8.48
2018-06-03T16:26:54.491Z,8.68
2018-06-03T16:29:21.839Z,7.53
2018-06-03T16:31:49.225Z,7.67
2018-06-03T16:34:16.629Z,6.60
2018-06-03T16:36:43.975Z,7.08
2018-06-03T16:39:11.685Z,6.87
2018-06-03T16:41:39.075Z,6.58
2018-06-03T16:44:06.458Z,6.40
2018-06-03T16:46:33.787Z,7.00
2018-06-03T16:49:01.147Z,6.72
2018-06-03T16:51:28.527Z,7.37
2018-06-03T16:53:55.877Z,7.30
2018-06-03T16:56:23.252Z,6.70
2018-06-03T16:58:50.607Z,6.42
2018-06-03T17:01:18.013Z,6.30
2018-06-03T17:03:45.407Z,8.40
2018-06-03T17:06:12.763Z,7.97
2018-06-03T17:08:40.119Z,6.45
2018-06-03T17:11:07.489Z,6.45
2018-06-03T17:13:34.835Z,6.00
2018-06-03T17:16:02.244Z,7.35
2018-06-03T17:18:29.890Z,6.70
2018-06-03T17:20:57.280Z,7.40
2018-06-03T17:23:24.637Z,7.05
2018-06-03T17:25:52.035Z,6.28
2018-06-03T17:28:19.412Z,6.55
2018-06-03T17:30:46.786Z,7.15
2018-06-03T17:33:14.160Z,7.55
2018-06-03T17:35:41.560Z,8.08
2018-06-03T17:38:08.912Z,8.23
2018-06-03T17:40:36.275Z,9.68
2018-06-03T17:43:03.634Z,9.90
2018-06-03T17:45:31.013Z,8.63
2018-06-03T17:47:58.393Z,7.67
2018-06-03T17:50:25.739Z,9.18
2018-06-03T17:52:53.091Z,8.68
2018-06-03T17:55:20.470Z,8.93
2018-06-03T17:57:47.810Z,8.78
2018-06-03T18:00:15.156Z,8.98
2018-06-03T18:02:42.773Z,8.75
2018-06-03T18:05:10.150Z,8.25
2018-06-03T18:07:37.549Z,9.73
2018-06-03T18:10:04.907Z,8.93
2018-06-03T18:12:32.261Z,7.92
2018-06-03T18:14:59.611Z,9.18
2018-06-03T18:17:26.995Z,8.20
2018-06-03T18:19:54.369Z,7.92
2018-06-03T18:22:21.727Z,7.87
2018-06-03T18:24:49.091Z,8.15
2018-06-03T18:27:16.423Z,8.58
2018-06-03T18:29:43.801Z,8.55
2018-06-03T18:32:11.209Z,8.50
2018-06-03T18:34:38.625Z,9.13
2018-06-03T18:37:06.007Z,8.20
2018-06-03T18:39:33.375Z,8.03
2018-06-03T18:42:00.732Z,8.18
2018-06-03T18:44:28.159Z,9.53
2018-06-03T18:46:55.542Z,8.60
2018-06-03T18:49:22.896Z,7.72
2018-06-03T18:51:50.243Z,8.63
2018-06-03T18:54:17.609Z,7.42
2018-06-03T18:56:44.983Z,8.68
2018-06-03T18:59:12.377Z,8.10
2018-06-03T19:01:39.759Z,10.78
2018-06-03T19:04:07.151Z,8.80
2018-06-03T19:06:34.503Z,11.53
2018-06-03T19:09:01.859Z,8.77
2018-06-03T19:11:29.237Z,8.93
2018-06-03T19:13:56.643Z,8.50
2018-06-03T19:16:23.996Z,8.23
2018-06-03T19:18:51.336Z,8.23
2018-06-03T19:21:18.673Z,8.33
2018-06-03T19:23:46.079Z,8.10
2018-06-03T19:26:13.421Z,8.17
2018-06-03T19:28:40.771Z,10.40
2018-06-03T19:31:08.201Z,8.30
2018-06-03T19:33:35.563Z,7.90
2018-06-03T19:36:02.975Z,8.73
2018-06-03T19:38:30.360Z,8.20
2018-06-03T19:40:57.782Z,10.17
2018-06-03T19:43:25.084Z,8.83
2018-06-03T19:45:52.504Z,8.70
2018-06-03T19:48:19.902Z,8.87
2018-06-03T19:50:47.277Z,10.30
2018-06-03T19:53:14.672Z,10.70
2018-06-03T19:55:42.033Z,9.43
2018-06-03T19:58:09.453Z,9.13
2018-06-03T20:00:37.011Z,9.47
2018-06-03T20:03:04.407Z,8.87
2018-06-03T20:05:31.769Z,9.93
2018-06-03T20:07:59.140Z,9.37
2018-06-03T20:10:26.515Z,9.33
2018-06-03T20:12:53.892Z,10.23
2018-06-03T20:15:21.443Z,9.33
2018-06-03T20:17:52.632Z,9.97
2018-06-03T20:20:20.185Z,9.23
2018-06-03T20:22:47.604Z,10.20
2018-06-03T20:25:14.947Z,10.87
2018-06-03T20:27:42.323Z,10.50
2018-06-03T20:30:09.696Z,9.53
2018-06-03T20:32:37.063Z,9.40
2018-06-03T20:35:04.429Z,10.07
2018-06-03T20:37:31.801Z,10.43
2018-06-03T20:39:59.156Z,9.23
2018-06-03T20:42:26.544Z,11.00
2018-06-03T20:44:53.951Z,9.80
2018-06-03T20:47:21.300Z,9.80
2018-06-03T20:49:48.672Z,10.63
2018-06-03T20:52:16.088Z,10.50
2018-06-03T20:54:43.449Z,11.30
2018-06-03T20:57:10.796Z,11.37
2018-06-03T20:59:38.229Z,14.40
2018-06-03T21:02:05.594Z,11.40
2018-06-03T21:04:32.943Z,11.63
2018-06-03T21:07:00.567Z,11.43
2018-06-03T21:09:27.911Z,11.13
2018-06-03T21:11:55.271Z,11.53
2018-06-03T21:14:22.623Z,12.27
2018-06-03T21:16:49.984Z,10.53
2018-06-03T21:19:17.359Z,11.33
2018-06-03T21:21:44.728Z,11.37
2018-06-03T21:24:12.070Z,12.53
2018-06-03T21:26:39.408Z,12.03
2018-06-03T21:29:06.774Z,13.83
2018-06-03T21:31:34.112Z,11.33
2018-06-03T21:34:01.449Z,10.60
2018-06-03T21:36:28.818Z,10.10
2018-06-03T21:38:56.161Z,10.60
2018-06-03T21:41:23.493Z,11.33
2018-06-03T21:43:51.012Z,10.67
2018-06-03T21:46:18.351Z,9.83
2018-06-03T21:48:45.705Z,10.77
2018-06-03T21:51:13.044Z,11.07
2018-06-03T21:53:40.387Z,11.57
2018-06-03T21:56:07.744Z,12.07
2018-06-03T21:58:35.103Z,14.90
2018-06-03T22:01:02.477Z,13.57
2018-06-03T22:03:29.838Z,14.67
2018-06-03T22:05:57.188Z,12.90
2018-06-03T22:08:24.528Z,12.40
2018-06-03T22:10:51.884Z,14.27
2018-06-03T22:13:19.253Z,12.60
2018-06-03T22:15:46.648Z,13.10
2018-06-03T22:18:14.024Z,15.40
2018-06-03T22:20:41.378Z,13.70
2018-06-03T22:23:08.756Z,12.67
2018-06-03T22:25:36.107Z,12.57
2018-06-03T22:28:03.491Z,13.63
2018-06-03T22:30:30.828Z,13.03
2018-06-03T22:32:58.168Z,13.07
2018-06-03T22:35:25.541Z,11.77
2018-06-03T22:37:52.912Z,12.33
2018-06-03T22:40:20.299Z,13.07
2018-06-03T22:42:47.771Z,13.90
2018-06-03T22:45:15.112Z,13.87
2018-06-03T22:47:42.483Z,13.53
2018-06-03T22:50:09.841Z,15.47
2018-06-03T22:52:37.179Z,15.17
2018-06-03T22:55:04.715Z,16.97
2018-06-03T22:57:44.861Z,17.77
2018-06-03T23:00:29.831Z,17.83
2018-06-03T23:03:02.943Z,19.57
2018-06-03T23:05:30.572Z,17.40
2018-06-03T23:07:58.019Z,21.73
2018-06-03T23:10:25.448Z,18.67
2018-06-03T23:12:52.883Z,16.17
2018-06-03T23:15:20.295Z,15.87
2018-06-03T23:17:48.067Z,18.67
2018-06-03T23:20:15.491Z,17.13
2018-06-03T23:22:42.879Z,17.17
2018-06-03T23:25:10.284Z,15.63
2018-06-03T23:27:37.666Z,15.27
2018-06-03T23:30:05.097Z,15.67
2018-06-03T23:32:32.500Z,16.10
2018-06-03T23:34:59.906Z,15.23
2018-06-03T23:37:27.303Z,17.37
2018-06-03T23:39:54.691Z,16.57
2018-06-03T23:42:22.070Z,16.97
2018-06-03T23:44:49.483Z,15.97
2018-06-03T23:47:16.883Z,16.83
2018-06-03T23:49:44.259Z,21.33
2018-06-03T23:52:11.630Z,18.10
2018-06-03T23:54:39.206Z,17.93
2018-06-03T23:57:06.600Z,18.40
2018-06-03T23:59:33.980Z,19.10
